createdAt,value
2022-08-04T00:02:38.305Z,100544.16
2022-08-04T00:05:08.559Z,100545.34
2022-08-04T00:08:11.338Z,100543.31
2022-08-04T00:10:41.921Z,100549.75
2022-08-04T00:13:10.505Z,100546.50
2022-08-04T00:15:38.955Z,100545.25
2022-08-04T00:18:41.217Z,100540.84
2022-08-04T00:21:14.859Z,100536.78
2022-08-04T00:24:11.383Z,100535.59
2022-08-04T00:26:34.836Z,100538.81
2022-08-04T00:29:03.233Z,100539.22
2022-08-04T00:31:53.958Z,100536.78
2022-08-04T00:34:20.058Z,100537.16
2022-08-04T00:36:48.312Z,100544.03
2022-08-04T00:39:19.860Z,100539.19
2022-08-04T00:42:37.264Z,100540.78
2022-08-04T00:46:15.004Z,100540.38
2022-08-04T00:49:13.485Z,100539.16
2022-08-04T00:51:41.752Z,100531.91
2022-08-04T00:54:49.213Z,100528.69
2022-08-04T00:57:38.496Z,100533.50
2022-08-04T01:00:14.313Z,100529.50
2022-08-04T01:03:37.812Z,100524.25
2022-08-04T01:06:21.911Z,100527.06
2022-08-04T01:09:08.738Z,100515.78
2022-08-04T01:12:32.373Z,100524.31
2022-08-04T01:15:56.486Z,100523.06
2022-08-04T01:18:52.680Z,100516.25
2022-08-04T01:21:51.604Z,100516.63
2022-08-04T01:24:44.640Z,100516.22
2022-08-04T01:27:29.824Z,100515.00
2022-08-04T01:30:01.529Z,100511.38
2022-08-04T01:32:39.243Z,100510.16
2022-08-04T01:35:49.224Z,100510.97
2022-08-04T01:38:37.709Z,100507.75
2022-08-04T01:41:14.549Z,100502.09
2022-08-04T01:43:45.473Z,100500.88
2022-08-04T01:46:18.000Z,100492.81
2022-08-04T01:48:48.210Z,100494.41
2022-08-04T01:51:16.570Z,100504.09
2022-08-04T01:53:45.724Z,100498.84
2022-08-04T01:56:14.023Z,100496.44
2022-08-04T01:58:42.471Z,100498.84
2022-08-04T02:01:13.976Z,100504.47
2022-08-04T02:04:22.029Z,100500.44
2022-08-04T02:07:31.520Z,100483.56
2022-08-04T02:10:37.008Z,100490.38
2022-08-04T02:14:03.893Z,100483.56
2022-08-04T02:16:53.293Z,100486.38
2022-08-04T02:20:07.233Z,100481.94
2022-08-04T02:22:44.593Z,100478.72
2022-08-04T02:25:13.260Z,100481.53
2022-08-04T02:28:01.971Z,100479.53
2022-08-04T02:33:46.935Z,100474.66
2022-08-04T02:36:31.193Z,100467.84
2022-08-04T02:39:07.478Z,100465.81
2022-08-04T02:41:37.173Z,100463.41
2022-08-04T02:44:10.233Z,100467.03
2022-08-04T02:46:41.524Z,100464.19
2022-08-04T02:49:11.200Z,100456.94
2022-08-04T02:51:46.445Z,100456.09
2022-08-04T02:54:22.325Z,100457.72
2022-08-04T02:57:02.531Z,100455.28
2022-08-04T03:00:00.590Z,100444.03
2022-08-04T03:03:09.464Z,100445.63
2022-08-04T03:06:17.637Z,100441.59
2022-08-04T03:09:14.985Z,100437.94
2022-08-04T03:12:01.646Z,100440.75
2022-08-04T03:14:59.903Z,100441.53
2022-08-04T03:18:38.976Z,100434.28
2022-08-04T03:21:30.539Z,100435.84
2022-08-04T03:24:35.389Z,100430.63
2022-08-04T03:27:55.726Z,100428.63
2022-08-04T03:30:57.586Z,100434.25
2022-08-04T03:33:53.385Z,100435.81
2022-08-04T03:37:09.084Z,100429.38
2022-08-04T03:40:08.932Z,100424.16
2022-08-04T03:42:51.520Z,100422.13
2022-08-04T03:46:14.676Z,100428.94
2022-08-04T03:49:01.141Z,100423.28
2022-08-04T03:52:01.939Z,100425.31
2022-08-04T03:55:45.881Z,100420.88
2022-08-04T03:58:33.890Z,100416.03
2022-08-04T04:01:29.821Z,100419.66
2022-08-04T04:04:48.175Z,100411.59
2022-08-04T04:08:12.572Z,100412.00
2022-08-04T04:11:15.174Z,100409.16
2022-08-04T04:14:10.861Z,100406.75
2022-08-04T04:17:24.405Z,100409.19
2022-08-04T04:20:51.159Z,100403.56
2022-08-04T04:24:00.485Z,100415.63
2022-08-04T04:26:46.532Z,100408.38
2022-08-04T04:30:04.249Z,100407.56
2022-08-04T04:32:50.454Z,100408.41
2022-08-04T04:36:21.751Z,100408.41
2022-08-04T04:39:25.700Z,100397.94
2022-08-04T04:42:39.075Z,100404.81
2022-08-04T04:45:47.536Z,100402.81
2022-08-04T04:48:44.042Z,100404.06
2022-08-04T04:51:43.471Z,100398.03
2022-08-04T04:54:44.036Z,100392.41
2022-08-04T04:57:53.478Z,100395.63
2022-08-04T05:00:13.646Z,100393.28
2022-08-04T05:03:15.780Z,100384.44
2022-08-04T05:06:21.916Z,100388.47
2022-08-04T05:09:36.693Z,100384.88
2022-08-04T05:14:37.122Z,100388.53
2022-08-04T05:15:53.954Z,100388.91
2022-08-04T05:18:27.990Z,100392.53
2022-08-04T05:22:05.457Z,100388.13
2022-08-04T05:24:41.018Z,100386.13
2022-08-04T05:27:29.523Z,100384.50
2022-08-04T05:30:07.346Z,100392.19
2022-08-04T05:32:49.187Z,100388.97
2022-08-04T05:36:17.932Z,100381.75
2022-08-04T05:38:39.641Z,100384.56
2022-08-04T05:41:09.796Z,100374.47
2022-08-04T05:43:45.750Z,100373.28
2022-08-04T05:46:15.634Z,100371.25
2022-08-04T05:48:45.672Z,100372.84
2022-08-04T05:51:15.274Z,100373.22
2022-08-04T05:53:44.584Z,100372.81
2022-08-04T05:56:15.932Z,100373.59
2022-08-04T05:58:45.286Z,100374.03
2022-08-04T06:01:17.922Z,100372.38
2022-08-04T06:03:49.297Z,100369.94
2022-08-04T06:06:18.911Z,100379.97
2022-08-04T06:08:47.397Z,100377.13
2022-08-04T06:11:16.567Z,100370.63
2022-08-04T06:13:53.856Z,100368.56
2022-08-04T06:16:30.217Z,100368.13
2022-08-04T06:20:03.892Z,100370.09
2022-08-04T06:22:00.317Z,100361.56
2022-08-04T06:24:30.300Z,100361.47
2022-08-04T06:26:58.852Z,100373.50
2022-08-04T06:29:37.683Z,100369.41
2022-08-04T06:32:33.791Z,100369.34
2022-08-04T06:35:07.154Z,100364.97
2022-08-04T06:37:42.111Z,100359.56
2022-08-04T06:40:31.401Z,100356.25
2022-08-04T06:43:07.010Z,100354.56
2022-08-04T06:45:39.971Z,100347.19
2022-08-04T06:48:10.768Z,100343.91
2022-08-04T06:51:30.581Z,100356.81
2022-08-04T06:53:29.605Z,100345.16
2022-08-04T06:55:59.596Z,100345.28
2022-08-04T06:58:28.799Z,100344.31
2022-08-04T07:01:01.834Z,100345.47
2022-08-04T07:03:30.762Z,100346.94
2022-08-04T07:05:59.255Z,100345.63
2022-08-04T07:08:36.222Z,100350.44
2022-08-04T07:11:05.906Z,100339.78
2022-08-04T07:13:34.357Z,100340.94
2022-08-04T07:16:02.874Z,100341.31
2022-08-04T07:18:32.214Z,100340.00
2022-08-04T07:21:01.090Z,100341.16
2022-08-04T07:23:29.481Z,100339.94
2022-08-04T07:26:00.052Z,100338.56
2022-08-04T07:28:40.815Z,100338.56
2022-08-04T07:31:34.233Z,100334.22
2022-08-04T07:34:16.434Z,100329.16
2022-08-04T07:36:56.171Z,100327.84
2022-08-04T07:39:31.294Z,100326.69
2022-08-04T07:42:02.378Z,100328.59
2022-08-04T07:44:40.042Z,100328.53
2022-08-04T07:47:08.786Z,100322.81
2022-08-04T07:49:55.180Z,100327.78
2022-08-04T07:52:26.870Z,100322.19
2022-08-04T07:54:55.460Z,100319.97
2022-08-04T07:57:41.737Z,100322.34
2022-08-04T08:00:14.831Z,100322.66
2022-08-04T08:02:43.927Z,100315.38
2022-08-04T08:05:16.791Z,100317.16
2022-08-04T08:07:54.138Z,100318.75
2022-08-04T08:10:24.786Z,100312.09
2022-08-04T08:12:54.113Z,100313.94
2022-08-04T08:15:23.196Z,100318.59
2022-08-04T08:17:59.921Z,100318.03
2022-08-04T08:20:33.251Z,100318.69
2022-08-04T08:23:03.341Z,100316.06
2022-08-04T08:25:33.891Z,100312.72
2022-08-04T08:28:05.306Z,100310.75
2022-08-04T08:30:34.470Z,100311.69
2022-08-04T08:33:10.076Z,100314.81
2022-08-04T08:36:09.806Z,100311.88
2022-08-04T08:39:18.735Z,100304.09
2022-08-04T08:42:22.104Z,100297.59
2022-08-04T08:45:57.285Z,100300.56
2022-08-04T08:49:07.608Z,100297.28
2022-08-04T08:52:05.525Z,100292.81
2022-08-04T08:55:16.346Z,100292.34
2022-08-04T08:58:01.636Z,100296.56
2022-08-04T09:01:33.208Z,100300.38
2022-08-04T09:04:22.838Z,100291.59
2022-08-04T09:08:08.683Z,100291.59
2022-08-04T09:10:51.897Z,100292.19
2022-08-04T09:13:46.126Z,100292.75
2022-08-04T09:16:44.493Z,100294.13
2022-08-04T09:19:38.080Z,100287.09
2022-08-04T09:22:22.737Z,100287.09
2022-08-04T09:25:21.156Z,100286.44
2022-08-04T09:27:55.615Z,100286.16
2022-08-04T09:30:40.886Z,100287.78
2022-08-04T09:33:45.555Z,100286.50
2022-08-04T09:36:45.689Z,100288.06
2022-08-04T09:39:32.164Z,100285.91
2022-08-04T09:42:22.610Z,100293.25
2022-08-04T09:45:26.137Z,100285.50
2022-08-04T09:48:35.186Z,100272.38
2022-08-04T09:51:58.240Z,100273.19
2022-08-04T09:55:37.603Z,100268.91
2022-08-04T09:58:46.957Z,100270.81
2022-08-04T10:01:25.254Z,100272.19
2022-08-04T10:04:02.126Z,100263.78
2022-08-04T10:07:20.843Z,100265.25
2022-08-04T10:10:20.369Z,100255.91
2022-08-04T10:13:52.766Z,100260.03
2022-08-04T10:16:55.555Z,100262.59
2022-08-04T10:19:31.684Z,100254.25
2022-08-04T10:22:28.462Z,100260.50
2022-08-04T10:26:03.262Z,100254.28
2022-08-04T10:28:15.295Z,100265.47
2022-08-04T10:31:03.771Z,100265.41
2022-08-04T10:33:41.647Z,100260.56
2022-08-04T10:36:11.754Z,100265.16
2022-08-04T10:39:13.756Z,100258.53
2022-08-04T10:42:25.333Z,100250.59
2022-08-04T10:45:19.438Z,100251.72
2022-08-04T10:48:34.326Z,100256.09
2022-08-04T10:51:57.343Z,100248.03
2022-08-04T10:54:56.333Z,100245.38
2022-08-04T10:57:35.927Z,100258.78
2022-08-04T11:00:16.541Z,100252.94
2022-08-04T11:02:57.110Z,100247.06
2022-08-04T11:05:54.763Z,100247.06
2022-08-04T11:08:45.275Z,100257.13
2022-08-04T11:12:00.631Z,100246.94
2022-08-04T11:14:44.621Z,100257.19
2022-08-04T11:17:36.013Z,100256.16
2022-08-04T11:20:37.543Z,100256.06
2022-08-04T11:23:16.290Z,100248.53
2022-08-04T11:26:20.332Z,100252.47
2022-08-04T11:29:26.978Z,100258.25
2022-08-04T11:32:01.290Z,100256.16
2022-08-04T11:34:29.664Z,100253.88
2022-08-04T11:37:48.412Z,100258.81
2022-08-04T11:40:27.521Z,100267.72
2022-08-04T11:43:07.148Z,100253.97
2022-08-04T11:45:42.303Z,100261.25
2022-08-04T11:48:16.476Z,100257.13
2022-08-04T11:50:53.842Z,100252.03
2022-08-04T11:53:36.362Z,100255.91
2022-08-04T11:56:12.561Z,100263.03
2022-08-04T11:58:41.852Z,100268.47
2022-08-04T12:01:27.905Z,100276.13
2022-08-04T12:04:19.139Z,100269.75
2022-08-04T12:07:42.849Z,100270.38
2022-08-04T12:11:06.105Z,100266.38
2022-08-04T12:14:10.346Z,100268.28
2022-08-04T12:17:05.937Z,100273.56
2022-08-04T12:20:05.281Z,100272.41
2022-08-04T12:22:51.261Z,100289.97
2022-08-04T12:25:31.633Z,100276.16
2022-08-04T12:28:19.393Z,100278.19
2022-08-04T12:31:00.905Z,100280.69
2022-08-04T12:34:04.451Z,100261.34
2022-08-04T12:36:46.585Z,100275.88
2022-08-04T12:39:20.716Z,100276.75
2022-08-04T12:42:18.251Z,100285.75
2022-08-04T12:44:54.124Z,100282.53
2022-08-04T12:47:29.527Z,100284.16
2022-08-04T12:50:04.003Z,100280.28
2022-08-04T12:53:05.396Z,100298.28
2022-08-04T12:55:35.498Z,100301.16
2022-08-04T12:58:16.403Z,100286.69
2022-08-04T13:02:07.883Z,100290.25
2022-08-04T13:04:29.393Z,100294.69
2022-08-04T13:07:05.720Z,100299.06
2022-08-04T13:09:34.987Z,100293.66
2022-08-04T13:12:16.581Z,100300.25
2022-08-04T13:14:49.572Z,100288.88
2022-08-04T13:17:19.827Z,100298.31
2022-08-04T13:19:53.067Z,100293.69
2022-08-04T13:22:28.708Z,100299.06
2022-08-04T13:25:18.288Z,100308.06
2022-08-04T13:27:55.498Z,100306.25
2022-08-04T13:30:27.777Z,100305.88
2022-08-04T13:33:01.851Z,100302.91
2022-08-04T13:35:55.749Z,100315.78
2022-08-04T13:38:20.018Z,100330.56
2022-08-04T13:40:49.380Z,100349.66
2022-08-04T13:44:15.332Z,100364.47
2022-08-04T13:46:29.678Z,100372.22
2022-08-04T13:51:59.992Z,100357.00
2022-08-04T13:54:46.421Z,100373.19
2022-08-04T13:57:31.949Z,100348.97
2022-08-04T14:00:08.272Z,100357.09
2022-08-04T14:03:23.428Z,100357.47
2022-08-04T14:06:24.591Z,100371.44
2022-08-04T14:09:08.039Z,100370.63
2022-08-04T14:12:06.914Z,100379.44
2022-08-04T14:14:33.874Z,100378.81
2022-08-04T14:17:08.266Z,100380.31
2022-08-04T14:19:55.988Z,100378.41
2022-08-04T14:22:27.109Z,100381.81
2022-08-04T14:25:16.910Z,100381.06
2022-08-04T14:27:48.954Z,100384.06
2022-08-04T14:30:37.584Z,100373.84
2022-08-04T14:34:02.816Z,100365.94
2022-08-04T14:36:01.579Z,100350.75
2022-08-04T14:38:52.457Z,100359.97
2022-08-04T14:41:44.149Z,100347.41
2022-08-04T14:44:12.601Z,100343.16
2022-08-04T14:46:53.740Z,100347.63
2022-08-04T14:49:22.826Z,100349.25
2022-08-04T14:52:09.351Z,100353.00
2022-08-04T14:54:37.660Z,100351.47
2022-08-04T14:57:08.080Z,100349.25
2022-08-04T15:00:00.797Z,100356.22
2022-08-04T15:02:32.344Z,100337.09
2022-08-04T15:06:04.010Z,100345.06
2022-08-04T15:07:50.954Z,100341.88
2022-08-04T15:10:21.078Z,100327.63
2022-08-04T15:12:49.487Z,100325.78
2022-08-04T15:15:35.942Z,100318.50
2022-08-04T15:18:08.277Z,100314.97
2022-08-04T15:20:38.756Z,100309.69
2022-08-04T15:23:13.070Z,100310.16
2022-08-04T15:25:53.511Z,100313.81
2022-08-04T15:28:25.625Z,100319.59
2022-08-04T15:32:08.670Z,100322.75
2022-08-04T15:34:11.713Z,100320.22
2022-08-04T15:36:57.839Z,100324.06
2022-08-04T15:39:46.998Z,100325.66
2022-08-04T15:42:36.116Z,100327.19
2022-08-04T15:46:02.402Z,100324.09
2022-08-04T15:48:12.713Z,100322.44
2022-08-04T15:50:56.137Z,100334.59
2022-08-04T15:53:28.659Z,100345.13
2022-08-04T15:56:29.957Z,100346.34
2022-08-04T15:58:58.689Z,100353.47
2022-08-04T16:01:27.637Z,100355.13
2022-08-04T16:03:59.863Z,100363.97
2022-08-04T16:06:30.471Z,100363.19
2022-08-04T16:09:02.091Z,100368.19
2022-08-04T16:11:32.457Z,100373.75
2022-08-04T16:14:01.377Z,100368.09
2022-08-04T16:16:31.615Z,100371.00
2022-08-04T16:19:13.308Z,100368.91
2022-08-04T16:21:54.897Z,100369.09
2022-08-04T16:24:36.798Z,100361.13
2022-08-04T16:27:10.236Z,100366.19
2022-08-04T16:29:39.736Z,100366.81
2022-08-04T16:32:15.894Z,100376.50
2022-08-04T16:35:03.192Z,100392.13
2022-08-04T16:37:40.651Z,100380.69
2022-08-04T16:40:37.162Z,100393.50
2022-08-04T16:43:17.314Z,100385.34
2022-08-04T16:45:58.766Z,100392.16
2022-08-04T16:48:34.603Z,100389.03
2022-08-04T16:51:14.456Z,100395.53
2022-08-04T16:53:53.106Z,100409.53
2022-08-04T16:56:34.166Z,100397.66
2022-08-04T16:59:11.084Z,100384.78
2022-08-04T17:01:49.602Z,100385.34
2022-08-04T17:04:18.404Z,100382.03
2022-08-04T17:06:47.139Z,100396.47
2022-08-04T17:09:19.482Z,100385.69
2022-08-04T17:11:48.413Z,100396.81
2022-08-04T17:14:28.093Z,100392.66
2022-08-04T17:17:01.792Z,100383.53
2022-08-04T17:19:30.217Z,100402.81
2022-08-04T17:22:07.814Z,100390.13
2022-08-04T17:24:40.403Z,100380.53
2022-08-04T17:28:08.456Z,100387.28
2022-08-04T17:29:58.707Z,100396.63
2022-08-04T17:32:27.385Z,100388.97
2022-08-04T17:35:02.120Z,100378.06
2022-08-04T17:37:52.122Z,100383.44
2022-08-04T17:40:25.524Z,100394.47
2022-08-04T17:44:03.119Z,100406.84
2022-08-04T17:46:28.954Z,100408.38
2022-08-04T17:49:20.902Z,100400.53
2022-08-04T17:52:04.633Z,100397.75
2022-08-04T17:54:40.932Z,100406.28
2022-08-04T17:57:22.561Z,100412.28
2022-08-04T17:59:59.095Z,100412.75
2022-08-04T18:02:34.391Z,100412.31
2022-08-04T18:05:11.752Z,100419.06
2022-08-04T18:08:42.825Z,100407.59
2022-08-04T18:10:54.745Z,100420.81
2022-08-04T18:13:28.832Z,100416.09
2022-08-04T18:16:05.199Z,100421.66
2022-08-04T18:18:34.870Z,100427.34
2022-08-04T18:21:06.357Z,100427.78
2022-08-04T18:23:34.753Z,100428.75
2022-08-04T18:26:18.749Z,100430.13
2022-08-04T18:28:52.589Z,100428.66
2022-08-04T18:31:21.458Z,100431.59
2022-08-04T18:33:57.351Z,100432.41
2022-08-04T18:36:35.232Z,100429.13
2022-08-04T18:39:12.903Z,100423.78
2022-08-04T18:42:02.527Z,100431.34
2022-08-04T18:44:49.311Z,100425.09
2022-08-04T18:47:24.990Z,100432.75
2022-08-04T18:51:00.674Z,100444.28
2022-08-04T18:52:47.237Z,100440.22
2022-08-04T18:55:55.844Z,100445.34
2022-08-04T18:58:07.401Z,100441.94
2022-08-04T19:00:45.276Z,100446.59
2022-08-04T19:03:16.303Z,100446.84
2022-08-04T19:05:51.303Z,100456.34
2022-08-04T19:08:33.228Z,100463.78
2022-08-04T19:11:38.517Z,100465.50
2022-08-04T19:16:45.674Z,100477.53
2022-08-04T19:19:15.201Z,100478.47
2022-08-04T19:22:00.220Z,100486.78
2022-08-04T19:24:34.424Z,100470.78
2022-08-04T19:27:07.368Z,100473.69
2022-08-04T19:29:41.081Z,100475.09
2022-08-04T19:32:28.690Z,100489.72
2022-08-04T19:34:59.500Z,100493.53
2022-08-04T19:37:58.203Z,100501.31
2022-08-04T19:40:17.569Z,100490.94
2022-08-04T19:43:14.238Z,100490.53
2022-08-04T19:48:32.552Z,100499.16
2022-08-04T19:51:01.069Z,100500.81
2022-08-04T19:53:37.738Z,100503.41
2022-08-04T19:56:11.425Z,100505.50
2022-08-04T19:58:47.511Z,100503.56
2022-08-04T20:01:33.448Z,100506.88
2022-08-04T20:04:09.219Z,100506.13
2022-08-04T20:06:39.526Z,100494.78
2022-08-04T20:09:24.546Z,100497.31
2022-08-04T20:11:57.916Z,100497.00
2022-08-04T20:14:31.259Z,100498.25
2022-08-04T20:17:10.221Z,100492.34
2022-08-04T20:19:39.766Z,100500.50
2022-08-04T20:22:51.971Z,100507.53
2022-08-04T20:25:17.951Z,100506.78
2022-08-04T20:27:51.622Z,100510.84
2022-08-04T20:30:29.941Z,100508.91
2022-08-04T20:33:00.759Z,100513.34
2022-08-04T20:35:30.508Z,100513.91
2022-08-04T20:38:01.323Z,100517.56
2022-08-04T20:40:31.038Z,100505.19
2022-08-04T20:42:59.905Z,100514.47
2022-08-04T20:45:55.814Z,100510.09
2022-08-04T20:48:16.928Z,100513.66
2022-08-04T20:50:46.681Z,100524.63
2022-08-04T20:53:16.673Z,100527.47
2022-08-04T20:55:55.216Z,100527.53
2022-08-04T20:58:27.444Z,100528.00
2022-08-04T21:00:56.999Z,100525.19
2022-08-04T21:03:49.558Z,100523.25
2022-08-04T21:06:13.791Z,100526.94
2022-08-04T21:08:56.925Z,100519.28
2022-08-04T21:11:32.739Z,100521.31
2022-08-04T21:14:01.821Z,100524.53
2022-08-04T21:16:55.677Z,100535.91
2022-08-04T21:19:18.651Z,100539.16
2022-08-04T21:21:53.243Z,100550.53
2022-08-04T21:24:26.163Z,100560.22
2022-08-04T21:26:57.078Z,100554.59
2022-08-04T21:29:34.815Z,100556.22
2022-08-04T21:32:08.730Z,100573.22
2022-08-04T21:34:39.846Z,100574.84
2022-08-04T21:37:10.417Z,100583.72
2022-08-04T21:39:50.485Z,100580.88
2022-08-04T21:42:29.462Z,100592.59
2022-08-04T21:44:58.831Z,100595.00
2022-08-04T21:47:45.830Z,100597.47
2022-08-04T21:50:19.520Z,100594.63
2022-08-04T21:52:49.842Z,100595.03
2022-08-04T21:55:19.020Z,100590.97
2022-08-04T22:00:36.041Z,100599.06
2022-08-04T22:03:06.290Z,100593.44
2022-08-04T22:05:46.936Z,100591.78
2022-08-04T22:08:19.969Z,100604.72
2022-08-04T22:10:51.826Z,100602.28
2022-08-04T22:13:22.442Z,100607.13
2022-08-04T22:16:03.956Z,100606.34
2022-08-04T22:18:36.902Z,100604.72
2022-08-04T22:21:12.041Z,100617.63
2022-08-04T22:23:45.116Z,100615.63
2022-08-04T22:26:20.147Z,100616.03
2022-08-04T22:28:57.019Z,100621.69
2022-08-04T22:31:25.984Z,100626.53
2022-08-04T22:33:56.091Z,100626.13
2022-08-04T22:36:25.128Z,100640.28
2022-08-04T22:39:04.336Z,100635.41
2022-08-04T22:42:03.046Z,100635.41
2022-08-04T22:44:23.803Z,100637.84
2022-08-04T22:46:52.773Z,100649.53
2022-08-04T22:49:25.181Z,100641.88
2022-08-04T22:51:59.913Z,100651.56
2022-08-04T22:54:37.916Z,100669.31
2022-08-04T22:57:06.230Z,100662.88
2022-08-04T22:59:41.168Z,100654.00
2022-08-04T23:02:11.546Z,100654.78
2022-08-04T23:04:44.359Z,100647.53
2022-08-04T23:07:12.681Z,100661.25
2022-08-04T23:09:50.235Z,100666.50
2022-08-04T23:12:25.748Z,100664.06
2022-08-04T23:14:57.229Z,100657.19
2022-08-04T23:17:28.697Z,100651.53
2022-08-04T23:19:59.161Z,100652.38
2022-08-04T23:22:40.975Z,100652.34
2022-08-04T23:25:15.156Z,100643.50
2022-08-04T23:27:50.812Z,100643.91
2022-08-04T23:30:29.749Z,100639.44
2022-08-04T23:32:58.924Z,100635.41
2022-08-04T23:35:27.680Z,100638.25
2022-08-04T23:37:58.099Z,100632.19
2022-08-04T23:40:34.069Z,100632.19
2022-08-04T23:43:12.355Z,100641.00
2022-08-04T23:46:01.976Z,100639.38
2022-08-04T23:48:36.219Z,100620.03
2022-08-04T23:51:14.716Z,100619.19
2022-08-04T23:54:03.613Z,100607.94
2022-08-04T23:56:35.842Z,100604.69
2022-08-04T23:59:06.349Z,100603.88
